createdAt,value
2018-09-29T00:04:25.769Z,65.30
2018-09-29T00:09:55.036Z,65.40
2018-09-29T00:15:24.370Z,65.60
2018-09-29T00:20:53.675Z,65.50
2018-09-29T00:26:22.987Z,65.70
2018-09-29T00:31:52.241Z,65.90
2018-09-29T00:37:21.615Z,66.00
2018-09-29T00:42:50.981Z,66.80
2018-09-29T00:48:21.355Z,66.30
2018-09-29T00:53:50.700Z,66.30
2018-09-29T00:59:20.127Z,66.40
2018-09-29T01:04:49.447Z,66.40
2018-09-29T01:10:18.924Z,66.20
2018-09-29T01:15:48.190Z,66.10
2018-09-29T01:21:18.592Z,66.10
2018-09-29T01:26:48.684Z,66.20
2018-09-29T01:32:18.055Z,66.30
2018-09-29T01:37:47.378Z,66.60
2018-09-29T01:43:16.782Z,66.90
2018-09-29T01:48:46.127Z,66.80
2018-09-29T01:54:17.747Z,66.90
2018-09-29T01:59:47.838Z,66.60
2018-09-29T02:05:17.140Z,66.60
2018-09-29T02:10:46.559Z,66.60
2018-09-29T02:16:15.941Z,66.60
2018-09-29T02:21:45.220Z,66.50
2018-09-29T02:27:14.441Z,66.60
2018-09-29T02:32:43.708Z,66.50
2018-09-29T02:38:13.105Z,66.50
2018-09-29T02:43:42.339Z,66.50
2018-09-29T02:49:13.684Z,66.40
2018-09-29T02:54:42.949Z,66.40
2018-09-29T03:00:12.205Z,66.40
2018-09-29T03:05:42.480Z,66.40
2018-09-29T03:11:11.915Z,67.60
2018-09-29T03:16:41.252Z,67.40
2018-09-29T03:22:10.482Z,67.50
2018-09-29T03:27:39.653Z,67.30
2018-09-29T03:33:08.993Z,67.70
2018-09-29T03:38:38.219Z,67.40
2018-09-29T03:44:09.068Z,67.50
2018-09-29T03:49:38.358Z,67.50
2018-09-29T03:55:07.613Z,67.50
2018-09-29T04:00:36.831Z,67.50
2018-09-29T04:06:06.032Z,67.40
2018-09-29T04:11:35.272Z,67.50
2018-09-29T04:17:04.572Z,67.30
2018-09-29T04:22:33.818Z,67.40
2018-09-29T04:28:03.011Z,67.40
2018-09-29T04:33:32.261Z,67.30
2018-09-29T04:39:01.563Z,67.40
2018-09-29T04:44:30.791Z,67.30
2018-09-29T04:49:59.959Z,67.40
2018-09-29T04:55:29.175Z,67.30
2018-09-29T05:00:58.420Z,67.10
2018-09-29T05:06:27.659Z,67.10
2018-09-29T05:11:56.828Z,67.10
2018-09-29T05:17:27.132Z,67.20
2018-09-29T05:22:56.324Z,67.10
2018-09-29T05:28:25.573Z,67.20
2018-09-29T05:33:54.864Z,66.90
2018-09-29T05:39:24.247Z,67.90
2018-09-29T05:44:54.688Z,67.20
2018-09-29T05:50:23.967Z,67.10
2018-09-29T05:55:53.671Z,67.00
2018-09-29T06:01:22.899Z,66.90
2018-09-29T06:06:52.223Z,66.80
2018-09-29T06:12:21.660Z,66.90
2018-09-29T06:17:51.101Z,66.90
2018-09-29T06:23:21.423Z,66.90
2018-09-29T06:28:50.748Z,67.50
2018-09-29T06:34:20.175Z,67.00
2018-09-29T06:39:49.698Z,66.80
2018-09-29T06:45:19.013Z,66.90
2018-09-29T06:50:48.599Z,66.80
2018-09-29T06:56:17.931Z,66.80
2018-09-29T07:01:48.333Z,66.90
2018-09-29T07:07:19.906Z,66.80
2018-09-29T07:12:50.250Z,65.70
2018-09-29T07:18:19.994Z,65.60
2018-09-29T07:23:49.586Z,65.50
2018-09-29T07:29:19.080Z,65.50
2018-09-29T07:34:48.545Z,65.30
2018-09-29T07:40:18.999Z,65.20
2018-09-29T07:45:48.462Z,65.20
2018-09-29T07:51:17.796Z,65.70
2018-09-29T07:56:47.299Z,64.40
2018-09-29T08:02:17.772Z,64.30
2018-09-29T08:07:47.162Z,63.90
2018-09-29T08:13:16.788Z,63.80
2018-09-29T08:18:46.075Z,63.70
2018-09-29T08:24:15.409Z,63.10
2018-09-29T08:29:44.851Z,62.80
2018-09-29T08:35:15.835Z,62.60
2018-09-29T08:40:45.078Z,61.70
2018-09-29T08:46:14.283Z,61.90
2018-09-29T08:51:43.558Z,61.60
2018-09-29T08:57:12.748Z,61.30
2018-09-29T09:02:43.335Z,60.90
2018-09-29T09:08:12.735Z,60.80
2018-09-29T09:13:42.096Z,60.80
2018-09-29T09:19:11.347Z,60.60
2018-09-29T09:24:44.200Z,61.20
2018-09-29T09:30:13.726Z,59.70
2018-09-29T09:35:46.347Z,60.20
2018-09-29T09:41:15.735Z,58.90
2018-09-29T09:46:45.289Z,59.50
2018-09-29T09:52:14.579Z,59.10
2018-09-29T09:57:45.008Z,58.60
2018-09-29T10:03:23.143Z,58.60
2018-09-29T10:08:52.539Z,57.80
2018-09-29T10:14:21.794Z,57.40
2018-09-29T10:19:51.191Z,57.50
2018-09-29T10:25:21.356Z,56.80
2018-09-29T10:30:50.981Z,56.90
2018-09-29T10:36:20.814Z,56.20
2018-09-29T10:41:50.048Z,56.70
2018-09-29T10:47:23.909Z,56.30
2018-09-29T10:52:53.405Z,55.50
2018-09-29T10:58:24.388Z,54.30
2018-09-29T11:03:53.824Z,55.60
2018-09-29T11:09:24.144Z,54.70
2018-09-29T11:14:56.316Z,53.60
2018-09-29T11:20:26.348Z,53.00
2018-09-29T11:25:57.182Z,53.70
2018-09-29T11:31:27.504Z,52.90
2018-09-29T11:36:56.872Z,53.50
2018-09-29T11:42:26.480Z,52.40
2018-09-29T11:47:55.737Z,52.10
2018-09-29T11:53:25.163Z,53.30
2018-09-29T11:58:54.748Z,51.50
2018-09-29T12:04:25.509Z,51.30
2018-09-29T12:09:55.848Z,51.90
2018-09-29T12:15:25.353Z,51.70
2018-09-29T12:20:54.865Z,51.00
2018-09-29T12:26:24.270Z,50.10
2018-09-29T12:31:53.778Z,49.90
2018-09-29T12:37:23.267Z,50.20
2018-09-29T12:42:52.696Z,50.10
2018-09-29T12:48:22.171Z,49.30
2018-09-29T12:53:51.543Z,49.10
2018-09-29T12:59:20.982Z,46.00
2018-09-29T13:04:50.336Z,43.30
2018-09-29T13:10:19.772Z,44.60
2018-09-29T13:15:49.392Z,45.30
2018-09-29T13:21:19.697Z,46.50
2018-09-29T13:26:49.314Z,47.10
2018-09-29T13:32:19.453Z,46.10
2018-09-29T13:37:49.989Z,45.90
2018-09-29T13:43:19.745Z,43.50
2018-09-29T13:48:51.428Z,41.60
2018-09-29T13:54:20.880Z,38.80
2018-09-29T13:59:50.393Z,37.30
2018-09-29T14:05:19.873Z,34.60
2018-09-29T14:10:50.105Z,33.60
2018-09-29T14:16:20.968Z,31.90
2018-09-29T14:21:50.525Z,32.00
2018-09-29T14:27:20.005Z,30.90
2018-09-29T14:32:51.564Z,31.00
2018-09-29T14:38:25.811Z,29.70
2018-09-29T14:43:57.733Z,30.10
2018-09-29T14:49:28.393Z,29.80
2018-09-29T14:54:59.102Z,29.00
2018-09-29T15:00:44.104Z,29.90
2018-09-29T15:06:14.564Z,29.60
2018-09-29T15:11:43.895Z,31.40
2018-09-29T15:17:24.222Z,34.40
2018-09-29T15:22:55.086Z,36.70
2018-09-29T15:28:27.490Z,38.40
2018-09-29T15:33:59.492Z,39.80
2018-09-29T15:39:31.353Z,40.60
2018-09-29T15:45:05.632Z,41.60
2018-09-29T15:50:35.072Z,42.00
2018-09-29T15:56:05.359Z,43.10
2018-09-29T16:01:37.081Z,43.40
2018-09-29T16:07:11.913Z,43.70
2018-09-29T16:12:41.307Z,44.00
2018-09-29T16:18:10.546Z,44.30
2018-09-29T16:23:39.844Z,44.70
2018-09-29T16:29:09.385Z,45.00
2018-09-29T16:34:38.639Z,45.30
2018-09-29T16:40:07.924Z,45.50
2018-09-29T16:45:37.207Z,45.70
2018-09-29T16:51:06.536Z,46.40
2018-09-29T16:56:35.909Z,46.70
2018-09-29T17:02:05.279Z,47.00
2018-09-29T17:07:37.296Z,47.40
2018-09-29T17:13:06.613Z,48.00
2018-09-29T17:18:36.005Z,48.00
2018-09-29T17:24:05.276Z,48.20
2018-09-29T17:29:34.683Z,48.70
2018-09-29T17:35:05.836Z,48.90
2018-09-29T17:40:35.191Z,49.00
2018-09-29T17:46:05.575Z,49.30
2018-09-29T17:51:34.926Z,49.30
2018-09-29T17:57:05.330Z,49.80
2018-09-29T18:02:34.662Z,50.20
2018-09-29T18:08:04.100Z,50.10
2018-09-29T18:13:33.754Z,50.30
2018-09-29T18:19:04.232Z,50.70
2018-09-29T18:24:34.608Z,50.60
2018-09-29T18:30:04.128Z,50.80
2018-09-29T18:35:35.348Z,50.90
2018-09-29T18:41:04.613Z,51.30
2018-09-29T18:46:33.997Z,51.70
2018-09-29T18:52:03.397Z,51.60
2018-09-29T18:57:34.859Z,51.80
2018-09-29T19:03:04.254Z,52.00
2018-09-29T19:08:35.564Z,52.20
2018-09-29T19:14:04.848Z,52.30
2018-09-29T19:19:34.424Z,52.40
2018-09-29T19:25:03.717Z,52.40
2018-09-29T19:30:33.069Z,53.40
2018-09-29T19:41:46.985Z,54.00
2018-09-29T19:47:16.625Z,54.10
2018-09-29T19:52:46.133Z,54.20
2018-09-29T19:58:15.762Z,54.30
2018-09-29T20:03:46.520Z,54.20
2018-09-29T20:09:16.137Z,54.30
2018-09-29T20:14:45.726Z,54.40
2018-09-29T20:20:15.139Z,54.60
2018-09-29T20:25:44.488Z,54.60
2018-09-29T20:31:18.463Z,54.50
2018-09-29T20:36:48.183Z,54.50
2018-09-29T20:42:23.211Z,54.70
2018-09-29T20:47:53.696Z,54.80
2018-09-29T20:53:23.468Z,54.70
2018-09-29T20:58:53.417Z,54.70
2018-09-29T21:04:23.074Z,54.60
2018-09-29T21:09:52.545Z,54.60
2018-09-29T21:15:22.231Z,54.70
2018-09-29T21:20:51.791Z,54.70
2018-09-29T21:26:22.438Z,55.00
2018-09-29T21:31:52.598Z,55.40
2018-09-29T21:37:22.234Z,55.50
2018-09-29T21:42:51.981Z,55.30
2018-09-29T21:48:21.703Z,55.30
2018-09-29T21:53:51.627Z,55.30
2018-09-29T21:59:21.972Z,55.30
2018-09-29T22:04:53.898Z,55.50
2018-09-29T22:10:25.350Z,55.50
2018-09-29T22:15:54.651Z,55.80
2018-09-29T22:21:24.221Z,56.10
2018-09-29T22:26:53.999Z,56.00
2018-09-29T22:32:23.347Z,56.30
2018-09-29T22:37:53.726Z,56.40
2018-09-29T22:43:23.201Z,56.40
2018-09-29T22:48:52.583Z,56.60
2018-09-29T22:54:22.015Z,56.50
2018-09-29T22:59:51.369Z,56.50
2018-09-29T23:05:20.697Z,56.60
2018-09-29T23:10:50.125Z,56.80
2018-09-29T23:16:19.566Z,57.10
2018-09-29T23:21:48.936Z,57.20
2018-09-29T23:27:18.409Z,57.40
2018-09-29T23:32:48.088Z,57.60
2018-09-29T23:38:17.460Z,57.50
2018-09-29T23:43:46.857Z,57.70
2018-09-29T23:49:16.082Z,57.70
2018-09-29T23:54:45.675Z,57.70
